Time;durP1;ratioP1;P1;durP2;ratioP2;P2;SDS_P1;SDS_P2;PMS_P1;PMS_P2;Temp;Humidity;BMP_temperature;BMP_pressure;BME280_temperature;BME280_humidity;BME280_pressure;Samples;Min_cycle;Max_cycle;Signal;HPM_P1;HPM_P2
2022/07/24 00:01:08;;;;;;;4.30;2.87;;;25.10;50.40;;;;;;2335997;54;20957;-74
2022/07/24 00:03:39;;;;;;;3.75;2.50;;;25.00;50.40;;;;;;2560861;53;20942;-73
2022/07/24 00:06:06;;;;;;;3.83;2.72;;;25.00;50.60;;;;;;2353904;54;21085;-73
2022/07/24 00:08:33;;;;;;;4.05;2.80;;;25.00;50.50;;;;;;2314667;54;20964;-74
2022/07/24 00:11:01;;;;;;;4.37;2.97;;;25.00;50.50;;;;;;2316613;54;20982;-74
2022/07/24 00:13:30;;;;;;;3.80;2.80;;;25.00;50.60;;;;;;2420979;53;21019;-74
2022/07/24 00:15:57;;;;;;;4.05;2.65;;;25.00;50.60;;;;;;2317301;53;20951;-74
2022/07/24 00:18:23;;;;;;;3.60;2.53;;;25.00;50.70;;;;;;2321760;53;20967;-73
2022/07/24 00:21:39;;;;;;;3.50;2.40;;;25.00;50.70;;;;;;2317012;53;21005;-74
2022/07/24 00:24:11;;;;;;;3.65;2.50;;;24.90;50.90;;;;;;2463803;53;21100;-73
2022/07/24 00:26:38;;;;;;;3.87;2.50;;;24.90;50.80;;;;;;2317390;54;21068;-73
2022/07/24 00:29:07;;;;;;;3.53;2.37;;;24.90;50.70;;;;;;2458159;53;20949;-74
2022/07/24 00:31:34;;;;;;;4.40;2.80;;;24.90;50.80;;;;;;2324698;53;20951;-73
2022/07/24 00:34:01;;;;;;;4.22;2.90;;;24.80;50.80;;;;;;2555470;53;21786;-73
2022/07/24 00:36:43;;;;;;;4.20;3.05;;;24.80;50.80;;;;;;2316579;55;21013;-73
2022/07/24 00:39:10;;;;;;;3.70;2.55;;;24.80;51.60;;;;;;2315059;53;20987;-73
2022/07/24 00:41:36;;;;;;;4.15;2.75;;;24.80;51.10;;;;;;2314129;55;20979;-73
2022/07/24 00:44:08;;;;;;;4.93;3.15;;;24.80;51.20;;;;;;2312971;55;20924;-73
2022/07/24 00:47:10;;;;;;;3.85;2.90;;;24.80;51.40;;;;;;2314297;53;21123;-74
2022/07/24 00:49:37;;;;;;;3.40;2.25;;;24.80;51.60;;;;;;2320081;54;20945;-74
2022/07/24 00:52:04;;;;;;;4.37;2.80;;;24.70;51.20;;;;;;2339092;54;21679;-73
2022/07/24 00:54:30;;;;;;;4.37;2.92;;;24.70;51.30;;;;;;2340582;54;21337;-73
2022/07/24 00:56:57;;;;;;;4.12;2.72;;;24.70;51.40;;;;;;2340376;54;21000;-74
2022/07/24 00:59:39;;;;;;;3.37;2.28;;;24.60;51.30;;;;;;2340884;54;20963;-74
2022/07/24 01:02:05;;;;;;;3.25;2.30;;;24.70;51.80;;;;;;2312232;53;21539;-74
2022/07/24 01:04:32;;;;;;;4.00;2.87;;;24.60;51.40;;;;;;2313023;53;20964;-73
2022/07/24 01:06:58;;;;;;;4.43;2.85;;;24.60;51.50;;;;;;2313947;54;20913;-74
2022/07/24 01:09:24;;;;;;;3.78;2.45;;;24.60;51.70;;;;;;2309975;54;21044;-73
2022/07/24 01:11:51;;;;;;;3.78;2.55;;;24.60;51.70;;;;;;2313369;54;20937;-73
2022/07/24 01:14:17;;;;;;;3.97;2.80;;;24.50;51.60;;;;;;2314518;54;20983;-73
2022/07/24 01:16:44;;;;;;;4.28;2.87;;;24.50;51.60;;;;;;2386254;53;21052;-73
2022/07/24 01:19:12;;;;;;;5.18;3.20;;;24.50;51.70;;;;;;2310494;54;20919;-74
2022/07/24 01:21:45;;;;;;;4.10;2.65;;;24.50;51.70;;;;;;2472318;53;20992;-73
2022/07/24 01:24:11;;;;;;;3.58;2.78;;;24.50;51.70;;;;;;2339118;55;21414;-73
2022/07/24 01:26:41;;;;;;;4.00;2.65;;;24.40;51.60;;;;;;2314228;54;21693;-73
2022/07/24 01:29:07;;;;;;;3.53;2.42;;;24.40;51.80;;;;;;2344255;54;20969;-74
2022/07/24 01:31:36;;;;;;;3.75;2.30;;;24.40;51.70;;;;;;2488442;53;20986;-73
2022/07/24 01:34:03;;;;;;;3.70;2.65;;;24.40;51.80;;;;;;2425438;53;20944;-73
2022/07/24 01:36:29;;;;;;;4.40;2.70;;;24.30;51.70;;;;;;2341388;54;21048;-74
2022/07/24 01:38:56;;;;;;;7.65;2.22;;;24.30;51.70;;;;;;2344780;54;21005;-73
2022/07/24 01:41:22;;;;;;;4.20;2.92;;;24.30;51.80;;;;;;2376019;53;20972;-73
2022/07/24 01:44:16;;;;;;;4.47;2.72;;;24.30;51.80;;;;;;2434493;53;21048;-73
2022/07/24 01:46:43;;;;;;;4.03;3.03;;;24.30;52.20;;;;;;2396281;53;20945;-73
2022/07/24 01:49:10;;;;;;;5.37;2.67;;;24.20;51.80;;;;;;2332214;54;20924;-73
2022/07/24 01:51:36;;;;;;;3.50;2.42;;;24.20;51.90;;;;;;2343833;54;20996;-73
2022/07/24 01:54:03;;;;;;;3.50;2.50;;;24.10;51.90;;;;;;2343022;54;20921;-73
2022/07/24 01:56:34;;;;;;;4.07;2.80;;;24.10;51.90;;;;;;2589997;53;20972;-74
2022/07/24 01:59:07;;;;;;;3.60;2.42;;;24.10;52.10;;;;;;2377845;53;20905;-72
2022/07/24 02:01:35;;;;;;;3.17;2.30;;;24.10;52.10;;;;;;2400424;53;21727;-74
2022/07/24 02:04:01;;;;;;;3.78;2.28;;;24.00;51.90;;;;;;2335843;54;21080;-73
2022/07/24 02:06:40;;;;;;;5.95;2.80;;;24.00;52.00;;;;;;2589372;53;21015;-74
2022/07/24 02:09:06;;;;;;;3.58;2.45;;;24.00;52.20;;;;;;2590478;53;21130;-73
2022/07/24 02:11:33;;;;;;;4.62;2.92;;;24.00;52.00;;;;;;2573576;53;21064;-73
2022/07/24 02:14:00;;;;;;;3.85;2.50;;;23.90;52.00;;;;;;2334094;54;20976;-73
2022/07/24 02:16:30;;;;;;;3.87;2.50;;;23.90;52.10;;;;;;2382105;53;21711;-73
2022/07/24 02:19:22;;;;;;;4.25;2.55;;;23.90;52.10;;;;;;2390430;53;21055;-73
2022/07/24 02:21:49;;;;;;;3.53;2.28;;;23.80;52.30;;;;;;2324918;53;21208;-73
2022/07/24 02:24:15;;;;;;;3.45;2.37;;;23.80;52.00;;;;;;2345098;54;21496;-73
2022/07/24 02:26:42;;;;;;;3.95;2.65;;;23.80;52.10;;;;;;2336635;54;20937;-73
2022/07/24 02:29:10;;;;;;;3.90;2.50;;;23.80;52.20;;;;;;2320989;54;21039;-73
2022/07/24 02:31:39;;;;;;;4.35;2.70;;;23.70;52.10;;;;;;2361648;54;21784;-73
2022/07/24 02:34:15;;;;;;;4.40;2.45;;;23.70;52.20;;;;;;2329372;54;20913;-73
2022/07/24 02:36:41;;;;;;;4.32;2.65;;;23.70;52.40;;;;;;2342080;53;21408;-74
2022/07/24 02:39:08;;;;;;;3.75;2.50;;;23.70;52.30;;;;;;2339879;54;20987;-73
2022/07/24 02:41:34;;;;;;;3.37;2.30;;;23.70;52.30;;;;;;2394538;53;21860;-73
2022/07/24 02:44:01;;;;;;;3.50;2.45;;;23.60;52.20;;;;;;2322211;54;20957;-73
2022/07/24 02:46:27;;;;;;;4.30;2.40;;;23.60;52.30;;;;;;2390882;53;20969;-73
2022/07/24 02:49:23;;;;;;;3.83;2.58;;;23.60;52.30;;;;;;2390631;53;21070;-73
2022/07/24 02:51:49;;;;;;;4.78;2.60;;;23.60;52.50;;;;;;2502446;53;20941;-73
2022/07/24 02:54:31;;;;;;;4.68;2.60;;;23.50;52.20;;;;;;2352708;53;21004;-73
2022/07/24 02:57:12;;;;;;;4.05;2.33;;;23.50;52.60;;;;;;2338329;53;20995;-73
2022/07/24 02:59:38;;;;;;;4.25;2.45;;;23.50;52.60;;;;;;2323162;54;20961;-73
2022/07/24 03:02:05;;;;;;;3.55;2.42;;;23.50;52.40;;;;;;2368166;53;20940;-73
2022/07/24 03:04:35;;;;;;;3.70;2.42;;;23.40;52.30;;;;;;2333789;54;21749;-73
2022/07/24 03:07:01;;;;;;;3.62;2.50;;;23.40;52.40;;;;;;2334556;54;20925;-74
2022/07/24 03:09:28;;;;;;;3.95;2.30;;;23.40;52.40;;;;;;2497271;53;21750;-74
2022/07/24 03:11:54;;;;;;;3.70;2.53;;;23.40;52.50;;;;;;2580362;53;22032;-73
2022/07/24 03:14:21;;;;;;;3.58;2.50;;;23.40;52.50;;;;;;2407467;53;20929;-73
2022/07/24 03:16:48;;;;;;;4.50;2.80;;;23.40;52.50;;;;;;2346033;53;21678;-73
2022/07/24 03:19:15;;;;;;;3.47;2.33;;;23.40;52.60;;;;;;2341267;54;21004;-73
2022/07/24 03:21:42;;;;;;;4.30;2.75;;;23.40;52.60;;;;;;2338699;54;21108;-73
2022/07/24 03:24:13;;;;;;;4.20;2.60;;;23.30;52.60;;;;;;2324741;54;20933;-73
2022/07/24 03:26:43;;;;;;;3.80;2.58;;;23.30;52.60;;;;;;2576872;53;20944;-73
2022/07/24 03:29:10;;;;;;;5.72;2.53;;;23.30;52.70;;;;;;2535792;53;21466;-73
2022/07/24 03:31:37;;;;;;;4.05;2.67;;;23.30;52.60;;;;;;2411240;53;21978;-73
2022/07/24 03:34:06;;;;;;;3.90;2.58;;;23.30;52.70;;;;;;2315921;54;20987;-73
2022/07/24 03:36:33;;;;;;;4.15;2.67;;;23.20;52.60;;;;;;2313240;54;21141;-73
2022/07/24 03:38:59;;;;;;;4.57;2.75;;;23.20;52.70;;;;;;2313239;54;20950;-73
2022/07/24 03:41:26;;;;;;;4.12;2.40;;;23.20;52.80;;;;;;2552935;53;21055;-73
2022/07/24 03:43:52;;;;;;;4.00;2.87;;;23.20;52.80;;;;;;2389349;53;20967;-73
2022/07/24 03:46:18;;;;;;;3.80;2.67;;;23.10;52.90;;;;;;2463249;53;20935;-74
2022/07/24 03:48:45;;;;;;;3.67;2.47;;;23.20;53.00;;;;;;2322646;54;20929;-73
2022/07/24 03:51:11;;;;;;;3.87;2.55;;;23.10;52.90;;;;;;2435434;54;21437;-73
2022/07/24 03:53:38;;;;;;;4.28;2.83;;;23.10;52.90;;;;;;2315474;54;21018;-73
2022/07/24 03:56:08;;;;;;;3.92;2.45;;;23.10;53.00;;;;;;2503168;53;20951;-73
2022/07/24 03:58:34;;;;;;;4.28;2.50;;;23.10;53.00;;;;;;2314909;54;20995;-73
2022/07/24 04:01:04;;;;;;;4.18;2.45;;;23.10;52.90;;;;;;2314830;54;20990;-73
2022/07/24 04:03:31;;;;;;;3.87;2.25;;;23.00;52.80;;;;;;2314567;54;21003;-73
2022/07/24 04:05:59;;;;;;;3.42;2.45;;;23.00;52.90;;;;;;2318475;54;21514;-73
2022/07/24 04:08:26;;;;;;;4.28;2.30;;;22.90;52.90;;;;;;2318754;54;21490;-73
2022/07/24 04:10:56;;;;;;;3.40;2.28;;;22.90;53.00;;;;;;2353328;53;21006;-73
2022/07/24 04:13:27;;;;;;;3.60;2.30;;;22.90;53.00;;;;;;2319476;54;20951;-74
2022/07/24 04:15:54;;;;;;;4.15;2.70;;;22.80;53.10;;;;;;2422715;53;21609;-73
2022/07/24 04:18:21;;;;;;;4.03;2.83;;;22.80;53.10;;;;;;2313773;55;20971;-73
2022/07/24 04:20:47;;;;;;;3.58;2.45;;;22.80;53.20;;;;;;2553856;53;20987;-73
2022/07/24 04:23:14;;;;;;;4.30;2.12;;;22.80;53.30;;;;;;2336260;54;20960;-73
2022/07/24 04:25:47;;;;;;;3.85;2.50;;;22.80;53.30;;;;;;2341680;54;20905;-73
2022/07/24 04:28:13;;;;;;;3.80;2.72;;;22.80;53.60;;;;;;2340613;54;20928;-73
2022/07/24 04:30:40;;;;;;;7.62;3.20;;;22.70;53.40;;;;;;2338825;54;20967;-73
2022/07/24 04:33:07;;;;;;;5.07;3.30;;;22.70;53.40;;;;;;2330291;54;21036;-73
2022/07/24 04:35:39;;;;;;;3.92;2.67;;;22.70;53.60;;;;;;2340460;54;20931;-73
2022/07/24 04:38:06;;;;;;;3.80;2.65;;;22.70;53.80;;;;;;2338191;54;20939;-73
2022/07/24 04:40:34;;;;;;;3.72;2.53;;;22.60;53.50;;;;;;2335276;54;20929;-74
2022/07/24 04:43:01;;;;;;;3.58;2.45;;;22.60;54.20;;;;;;2331217;53;21038;-73
2022/07/24 04:45:27;;;;;;;3.87;2.70;;;22.60;53.60;;;;;;2566487;52;20924;-73
2022/07/24 04:47:54;;;;;;;4.70;3.03;;;22.60;53.70;;;;;;2544449;52;20988;-73
2022/07/24 04:50:20;;;;;;;4.00;2.75;;;22.60;53.90;;;;;;2577025;52;20929;-73
2022/07/24 04:52:47;;;;;;;3.50;2.47;;;22.60;53.90;;;;;;2383778;53;21476;-73
2022/07/24 04:55:13;;;;;;;4.35;2.85;;;22.60;53.90;;;;;;2395537;52;20932;-73
2022/07/24 04:57:40;;;;;;;3.87;2.65;;;22.50;53.90;;;;;;2588493;52;20932;-73
2022/07/24 05:00:07;;;;;;;4.87;2.62;;;22.50;53.90;;;;;;2352323;53;20979;-73
2022/07/24 05:02:34;;;;;;;4.55;2.53;;;22.60;54.10;;;;;;2340510;54;21093;-73
2022/07/24 05:05:00;;;;;;;4.43;2.85;;;22.60;54.10;;;;;;2460198;52;21777;-73
2022/07/24 05:07:27;;;;;;;4.12;2.67;;;22.60;54.10;;;;;;2443956;52;20976;-73
2022/07/24 05:09:57;;;;;;;4.82;2.97;;;22.60;54.20;;;;;;2375145;53;20944;-73
2022/07/24 05:12:24;;;;;;;4.18;3.10;;;22.60;54.50;;;;;;2392845;52;21471;-73
2022/07/24 05:14:53;;;;;;;4.43;3.30;;;22.60;54.50;;;;;;2384369;53;21462;-73
2022/07/24 05:17:20;;;;;;;4.57;3.00;;;22.60;54.50;;;;;;2340035;54;20952;-73
2022/07/24 05:19:47;;;;;;;4.40;3.20;;;22.60;54.60;;;;;;2487296;53;21494;-73
2022/07/24 05:22:14;;;;;;;5.37;2.72;;;22.60;54.60;;;;;;2338634;53;21683;-73
2022/07/24 05:24:40;;;;;;;4.00;2.55;;;22.70;54.70;;;;;;2353787;53;20923;-73
2022/07/24 05:27:09;;;;;;;3.78;2.70;;;22.70;54.70;;;;;;2330026;54;21004;-73
2022/07/24 05:29:35;;;;;;;3.87;2.80;;;22.70;54.80;;;;;;2507745;53;20969;-73
2022/07/24 05:32:02;;;;;;;4.57;3.10;;;22.80;54.90;;;;;;2585920;53;20913;-74
2022/07/24 05:34:31;;;;;;;3.97;3.17;;;22.80;55.00;;;;;;2540232;52;20925;-74
2022/07/24 05:36:58;;;;;;;4.50;2.97;;;22.80;55.00;;;;;;2340292;54;20997;-73
2022/07/24 05:39:24;;;;;;;4.18;2.75;;;22.80;55.10;;;;;;2446966;52;21493;-73
2022/07/24 05:41:51;;;;;;;4.07;3.00;;;22.80;55.10;;;;;;2505893;52;20993;-73
2022/07/24 05:44:17;;;;;;;4.25;3.08;;;22.90;55.20;;;;;;2587050;52;20945;-73
2022/07/24 05:46:44;;;;;;;4.78;3.35;;;22.90;55.20;;;;;;2470168;52;21864;-73
2022/07/24 05:49:10;;;;;;;4.60;2.95;;;22.90;55.20;;;;;;2340148;53;20990;-74
2022/07/24 05:51:36;;;;;;;4.03;2.70;;;23.00;55.30;;;;;;2347214;54;20932;-73
2022/07/24 05:54:03;;;;;;;4.87;2.92;;;23.00;55.30;;;;;;2338756;54;20968;-73
2022/07/24 05:56:30;;;;;;;4.62;2.72;;;23.10;55.40;;;;;;2337067;54;20928;-73
2022/07/24 05:58:57;;;;;;;4.62;2.90;;;23.10;55.40;;;;;;2461282;52;20964;-73
2022/07/24 06:01:23;;;;;;;4.62;2.90;;;23.20;55.50;;;;;;2340759;54;20936;-73
2022/07/24 06:03:50;;;;;;;5.15;3.00;;;23.20;55.50;;;;;;2342008;54;21587;-73
2022/07/24 06:06:16;;;;;;;4.65;3.10;;;23.30;55.60;;;;;;2341769;54;20929;-73
2022/07/24 06:08:42;;;;;;;4.93;3.28;;;23.30;55.60;;;;;;2341565;54;21417;-74
2022/07/24 06:11:11;;;;;;;4.90;3.22;;;23.40;55.60;;;;;;2341429;54;20933;-73
2022/07/24 06:13:42;;;;;;;4.70;3.08;;;23.40;55.50;;;;;;2340064;54;20937;-73
2022/07/24 06:16:10;;;;;;;4.70;3.45;;;23.50;55.60;;;;;;2310207;54;20939;-73
2022/07/24 06:18:36;;;;;;;4.05;3.05;;;23.50;55.50;;;;;;2319605;53;20935;-73
2022/07/24 06:21:06;;;;;;;4.72;3.08;;;23.60;55.60;;;;;;2313157;55;20912;-73
2022/07/24 06:23:32;;;;;;;5.12;3.05;;;23.60;55.70;;;;;;2313520;55;21023;-73
2022/07/24 06:25:59;;;;;;;5.35;3.12;;;23.70;55.80;;;;;;2313225;55;21019;-73
2022/07/24 06:28:25;;;;;;;5.95;3.40;;;23.80;56.00;;;;;;2312258;55;20940;-73
2022/07/24 06:30:53;;;;;;;4.97;3.00;;;23.80;55.90;;;;;;2311388;55;20956;-73
2022/07/24 06:33:20;;;;;;;3.65;2.78;;;23.90;56.10;;;;;;2540667;53;20975;-73
2022/07/24 06:35:46;;;;;;;5.72;3.30;;;23.90;56.10;;;;;;2304991;54;20987;-74
2022/07/24 06:38:12;;;;;;;4.80;3.45;;;24.00;56.20;;;;;;2311535;55;20974;-74
2022/07/24 06:40:39;;;;;;;4.50;3.20;;;24.10;56.20;;;;;;2310598;55;20952;-73
2022/07/24 06:43:06;;;;;;;4.20;2.92;;;24.20;56.30;;;;;;2317757;54;20968;-73
2022/07/24 06:45:32;;;;;;;4.82;3.10;;;24.30;56.40;;;;;;2325189;53;21003;-73
2022/07/24 06:48:00;;;;;;;4.82;3.20;;;24.30;56.40;;;;;;2298585;54;20977;-73
2022/07/24 06:50:28;;;;;;;4.70;3.47;;;24.40;56.50;;;;;;2308301;53;20943;-74
2022/07/24 06:52:55;;;;;;;5.00;3.30;;;24.50;56.50;;;;;;2551134;53;21703;-73
2022/07/24 06:55:21;;;;;;;4.20;3.00;;;24.60;56.60;;;;;;2303952;54;20984;-73
2022/07/24 06:57:47;;;;;;;4.47;3.33;;;24.60;56.60;;;;;;2319841;54;21389;-73
2022/07/24 07:00:15;;;;;;;4.95;3.60;;;24.70;56.60;;;;;;2359049;53;21521;-74
2022/07/24 07:02:41;;;;;;;4.28;3.30;;;24.80;56.50;;;;;;2327391;54;20951;-74
2022/07/24 07:05:08;;;;;;;4.65;3.53;;;24.90;56.60;;;;;;2331285;53;21000;-72
2022/07/24 07:07:35;;;;;;;4.80;3.15;;;25.00;56.50;;;;;;2315742;54;21925;-72
2022/07/24 07:10:02;;;;;;;4.90;3.33;;;25.10;56.50;;;;;;2310011;54;20941;-74
2022/07/24 07:12:29;;;;;;;5.00;3.47;;;25.20;56.50;;;;;;2322175;54;21062;-73
2022/07/24 07:14:55;;;;;;;5.28;3.58;;;25.20;56.40;;;;;;2310395;53;20947;-72
2022/07/24 07:17:22;;;;;;;6.22;4.05;;;25.30;56.30;;;;;;2316554;54;20981;-74
2022/07/24 07:19:48;;;;;;;4.87;3.75;;;25.40;56.30;;;;;;2335384;54;21071;-73
2022/07/24 07:22:14;;;;;;;5.37;3.83;;;25.50;56.20;;;;;;2310253;53;21848;-73
2022/07/24 07:24:41;;;;;;;5.43;4.07;;;25.60;56.30;;;;;;2308674;53;20955;-72
2022/07/24 07:27:07;;;;;;;5.68;3.87;;;25.60;56.20;;;;;;2454324;53;20979;-73
2022/07/24 07:29:34;;;;;;;5.12;3.87;;;25.70;56.30;;;;;;2546745;53;21036;-73
2022/07/24 07:32:00;;;;;;;5.15;3.70;;;25.80;56.30;;;;;;2310814;54;21024;-73
2022/07/24 07:34:28;;;;;;;4.37;3.58;;;25.90;56.30;;;;;;2513366;53;20937;-75
2022/07/24 07:36:57;;;;;;;4.87;3.67;;;25.90;56.20;;;;;;2306307;54;20988;-73
2022/07/24 07:39:23;;;;;;;5.00;3.75;;;26.00;56.10;;;;;;2309577;53;20966;-75
2022/07/24 07:41:50;;;;;;;5.10;3.97;;;26.20;56.20;;;;;;2328577;54;21016;-75
2022/07/24 07:44:17;;;;;;;8.07;4.30;;;26.30;56.20;;;;;;2445548;53;20975;-75
2022/07/24 07:46:43;;;;;;;5.40;4.00;;;26.30;56.00;;;;;;2309667;55;21383;-76
2022/07/24 07:49:10;;;;;;;5.65;4.40;;;26.40;56.10;;;;;;2325425;54;20992;-74
2022/07/24 07:51:36;;;;;;;5.62;4.00;;;26.60;56.20;;;;;;2394838;52;21006;-74
2022/07/24 07:54:02;;;;;;;4.47;3.42;;;26.60;55.90;;;;;;2300912;54;21038;-74
2022/07/24 07:56:31;;;;;;;4.65;3.75;;;26.70;55.70;;;;;;2302242;54;21015;-73
2022/07/24 07:59:00;;;;;;;5.22;3.72;;;26.80;55.30;;;;;;2317630;54;21014;-74
2022/07/24 08:01:27;;;;;;;4.90;3.72;;;26.90;55.00;;;;;;2313908;54;20992;-75
2022/07/24 08:03:53;;;;;;;4.37;3.47;;;27.00;54.80;;;;;;2314188;55;20971;-76
2022/07/24 08:06:20;;;;;;;5.90;3.92;;;27.10;54.70;;;;;;2326030;54;20951;-74
2022/07/24 08:08:46;;;;;;;5.32;3.90;;;27.20;54.50;;;;;;2373402;53;21845;-74
2022/07/24 08:11:18;;;;;;;6.50;3.90;;;27.20;54.40;;;;;;2312971;54;20919;-75
2022/07/24 08:13:44;;;;;;;5.37;3.67;;;27.30;54.20;;;;;;2586319;52;21024;-74
2022/07/24 08:16:11;;;;;;;5.53;3.87;;;27.40;54.10;;;;;;2365121;53;20929;-75
2022/07/24 08:18:37;;;;;;;5.40;3.97;;;27.50;54.20;;;;;;2343293;53;20908;-75
2022/07/24 08:21:04;;;;;;;5.25;3.87;;;27.50;53.90;;;;;;2451892;52;21034;-75
2022/07/24 08:23:30;;;;;;;4.68;3.20;;;27.60;53.80;;;;;;2580172;52;21536;-74
2022/07/24 08:25:58;;;;;;;5.12;3.92;;;27.70;53.60;;;;;;2339351;54;20909;-74
2022/07/24 08:28:24;;;;;;;6.20;3.47;;;27.80;53.50;;;;;;2358156;53;21093;-75
2022/07/24 08:30:51;;;;;;;4.10;3.30;;;27.80;53.40;;;;;;2333675;54;21020;-74
2022/07/24 08:33:17;;;;;;;4.28;3.40;;;27.90;53.40;;;;;;2341549;54;21335;-73
2022/07/24 08:35:46;;;;;;;5.47;3.62;;;28.00;53.10;;;;;;2354372;54;21793;-75
2022/07/24 08:38:13;;;;;;;5.05;3.53;;;28.00;52.80;;;;;;2312847;54;21028;-73
2022/07/24 08:40:40;;;;;;;5.05;3.80;;;28.10;52.70;;;;;;2301625;55;21013;-71
2022/07/24 08:43:07;;;;;;;5.18;4.00;;;28.20;52.70;;;;;;2306667;54;21043;-72
2022/07/24 08:45:38;;;;;;;4.70;3.50;;;28.20;52.50;;;;;;2317459;54;21826;-74
2022/07/24 08:48:06;;;;;;;4.45;3.22;;;28.30;52.50;;;;;;2315233;55;20939;-70
2022/07/24 08:50:32;;;;;;;4.93;3.30;;;28.30;52.20;;;;;;2301711;55;20972;-73
2022/07/24 08:53:00;;;;;;;4.18;3.30;;;28.40;52.10;;;;;;2456490;53;20962;-72
2022/07/24 08:55:28;;;;;;;4.90;3.62;;;28.40;52.10;;;;;;2314558;53;20923;-72
2022/07/24 08:58:00;;;;;;;4.35;3.28;;;28.50;52.50;;;;;;2315497;53;20996;-71
2022/07/24 09:00:29;;;;;;;5.37;3.58;;;28.50;51.50;;;;;;2532185;53;21049;-72
2022/07/24 09:02:55;;;;;;;4.68;3.50;;;28.60;51.50;;;;;;2295219;55;20992;-71
2022/07/24 09:05:22;;;;;;;4.40;3.35;;;28.60;51.40;;;;;;2312929;55;20955;-72
2022/07/24 09:07:50;;;;;;;4.45;3.15;;;28.70;51.20;;;;;;2315924;53;20969;-72
2022/07/24 09:10:17;;;;;;;4.90;3.97;;;28.70;51.10;;;;;;2332816;54;20993;-72
2022/07/24 09:12:47;;;;;;;4.78;3.85;;;28.80;51.10;;;;;;2314081;54;20978;-73
2022/07/24 09:15:23;;;;;;;4.40;3.53;;;28.80;50.70;;;;;;2323908;54;21035;-72
2022/07/24 09:18:01;;;;;;;4.95;3.30;;;28.90;50.30;;;;;;2449003;53;20936;-72
2022/07/24 09:20:28;;;;;;;4.47;3.03;;;29.00;50.30;;;;;;2325067;54;20991;-74
2022/07/24 09:22:56;;;;;;;6.07;3.67;;;29.00;50.40;;;;;;2315891;54;20912;-74
2022/07/24 09:25:24;;;;;;;4.62;3.22;;;29.10;50.40;;;;;;2314540;54;21862;-73
2022/07/24 09:27:55;;;;;;;4.22;3.20;;;29.10;50.20;;;;;;2345832;53;21546;-72
2022/07/24 09:30:34;;;;;;;5.03;3.35;;;29.20;50.10;;;;;;2313896;54;20943;-73
2022/07/24 09:33:15;;;;;;;4.65;2.90;;;29.20;50.00;;;;;;2329440;54;20998;-72
2022/07/24 09:35:49;;;;;;;3.67;2.95;;;29.30;50.00;;;;;;2313363;54;20991;-73
2022/07/24 09:38:18;;;;;;;4.40;3.22;;;29.40;49.80;;;;;;2312426;54;20979;-74
2022/07/24 09:40:47;;;;;;;5.03;3.45;;;29.40;49.70;;;;;;2314198;54;21586;-73
2022/07/24 09:43:14;;;;;;;4.15;3.15;;;29.50;49.60;;;;;;2317004;54;20962;-73
2022/07/24 09:46:15;;;;;;;4.62;3.20;;;29.60;49.40;;;;;;2313224;54;20912;-73
2022/07/24 09:48:58;;;;;;;4.03;2.90;;;29.60;49.00;;;;;;2317185;55;21824;-72
2022/07/24 09:51:26;;;;;;;3.53;2.70;;;29.70;49.20;;;;;;2489927;53;21702;-72
2022/07/24 09:53:59;;;;;;;5.40;3.78;;;29.80;49.30;;;;;;2314052;54;20939;-73
2022/07/24 09:56:25;;;;;;;4.20;3.10;;;29.90;48.90;;;;;;2311787;54;20984;-71
2022/07/24 09:58:56;;;;;;;4.10;2.92;;;29.90;48.90;;;;;;2327336;54;21055;-71
2022/07/24 10:01:24;;;;;;;4.93;2.85;;;30.00;48.50;;;;;;2342345;54;20944;-73
2022/07/24 10:03:51;;;;;;;3.67;2.60;;;30.00;48.40;;;;;;2342257;54;21647;-69
2022/07/24 10:06:21;;;;;;;4.30;2.80;;;30.10;48.30;;;;;;2324141;54;20945;-71
2022/07/24 10:08:48;;;;;;;4.20;2.87;;;30.10;48.00;;;;;;2337013;54;21426;-72
2022/07/24 10:11:15;;;;;;;4.50;3.00;;;30.20;47.90;;;;;;2341173;54;20984;-70
2022/07/24 10:13:42;;;;;;;3.95;2.83;;;30.30;47.80;;;;;;2341669;54;20956;-72
2022/07/24 10:16:31;;;;;;;3.97;3.00;;;30.30;47.60;;;;;;2328803;54;20940;-73
2022/07/24 10:19:01;;;;;;;4.05;2.87;;;30.30;47.10;;;;;;2332396;54;20985;-71
2022/07/24 10:21:33;;;;;;;4.37;3.10;;;30.40;47.20;;;;;;2330233;54;21033;-70
2022/07/24 10:25:00;;;;;;;4.45;3.20;;;30.50;47.30;;;;;;2325409;54;20965;-70
2022/07/24 10:27:35;;;;;;;3.80;2.50;;;30.50;47.10;;;;;;2322235;54;21024;-71
2022/07/24 10:30:09;;;;;;;4.37;3.00;;;30.60;47.30;;;;;;2341377;54;21505;-72
2022/07/24 10:32:36;;;;;;;4.47;3.00;;;30.70;46.40;;;;;;2342078;54;20940;-72
2022/07/24 10:35:24;;;;;;;4.28;2.83;;;30.70;46.60;;;;;;2341783;54;20948;-73
2022/07/24 10:38:14;;;;;;;4.35;2.50;;;30.70;45.90;;;;;;2341655;54;20932;-73
2022/07/24 10:40:50;;;;;;;3.83;2.47;;;30.70;45.80;;;;;;2315949;53;21416;-72
2022/07/24 10:43:17;;;;;;;3.65;2.87;;;30.80;45.80;;;;;;2334515;53;20937;-71
2022/07/24 10:46:25;;;;;;;4.25;2.75;;;30.90;46.00;;;;;;2324492;55;21539;-72
2022/07/24 10:48:52;;;;;;;3.72;2.70;;;30.90;45.50;;;;;;2318737;55;21888;-73
2022/07/24 10:51:19;;;;;;;4.47;2.92;;;30.90;46.00;;;;;;2322769;55;21852;-73
2022/07/24 10:53:48;;;;;;;3.62;2.65;;;31.00;46.30;;;;;;2320848;54;20988;-72
2022/07/24 10:57:26;;;;;;;4.18;2.90;;;31.10;45.40;;;;;;2322405;54;20912;-72
2022/07/24 10:59:53;;;;;;;4.18;2.87;;;31.10;44.80;;;;;;2340454;54;21422;-72
2022/07/24 11:02:29;;;;;;;4.00;2.78;;;31.20;45.30;;;;;;2343836;54;20945;-72
2022/07/24 11:05:26;;;;;;;4.10;2.65;;;31.20;44.70;;;;;;2344131;54;20892;-73
2022/07/24 11:09:33;;;;;;;3.42;2.28;;;31.30;44.30;;;;;;2482999;52;21919;-74
2022/07/24 11:12:04;;;;;;;6.05;2.65;;;31.30;44.00;;;;;;2345599;54;21362;-74
2022/07/24 11:17:49;;;;;;;3.53;2.40;;;31.50;44.10;;;;;;2340015;53;20955;-72
2022/07/24 11:20:17;;;;;;;4.15;3.00;;;31.50;44.40;;;;;;2336866;54;20961;-72
2022/07/24 11:22:47;;;;;;;3.67;2.50;;;31.50;44.10;;;;;;2453369;52;20952;-72
2022/07/24 11:25:15;;;;;;;3.95;2.58;;;31.60;44.00;;;;;;2362773;52;21877;-73
2022/07/24 11:27:49;;;;;;;3.83;2.70;;;31.60;44.20;;;;;;2342181;54;21941;-73
2022/07/24 11:30:16;;;;;;;4.22;2.67;;;31.70;43.90;;;;;;2335235;54;20987;-74
2022/07/24 11:33:03;;;;;;;3.67;2.47;;;31.70;44.00;;;;;;2410377;52;20951;-75
2022/07/24 11:35:35;;;;;;;4.03;2.67;;;31.80;43.40;;;;;;2337570;54;21011;-74
2022/07/24 11:38:06;;;;;;;4.90;2.78;;;31.90;43.60;;;;;;2329759;54;20939;-74
2022/07/24 11:40:34;;;;;;;4.22;2.70;;;31.90;44.50;;;;;;2439279;52;21019;-74
2022/07/24 11:43:03;;;;;;;4.32;2.80;;;31.90;43.50;;;;;;2340022;54;21671;-73
2022/07/24 11:45:34;;;;;;;3.78;2.60;;;32.00;43.20;;;;;;2450564;52;21118;-74
2022/07/24 11:48:03;;;;;;;3.30;2.30;;;32.00;43.00;;;;;;2410201;52;20917;-74
2022/07/24 11:50:31;;;;;;;4.10;2.67;;;32.00;43.00;;;;;;2459166;52;20897;-72
2022/07/24 11:52:57;;;;;;;4.03;2.40;;;32.10;43.00;;;;;;2342194;54;20944;-72
2022/07/24 11:55:27;;;;;;;3.45;2.40;;;32.20;43.00;;;;;;2375529;52;21012;-71
2022/07/24 11:57:54;;;;;;;3.95;2.55;;;32.20;42.60;;;;;;2328369;54;20965;-71
2022/07/24 12:00:51;;;;;;;3.37;2.22;;;32.20;42.40;;;;;;2340636;53;21448;-71
2022/07/24 12:03:19;;;;;;;4.35;2.60;;;32.30;42.50;;;;;;2343526;53;20999;-72
2022/07/24 12:05:46;;;;;;;3.53;2.33;;;32.30;42.30;;;;;;2415908;53;21010;-73
2022/07/24 12:08:26;;;;;;;4.37;2.80;;;32.40;42.10;;;;;;2342001;54;20940;-73
2022/07/24 12:10:57;;;;;;;5.35;2.42;;;32.40;41.50;;;;;;2521928;52;20957;-72
2022/07/24 12:13:23;;;;;;;3.50;2.35;;;32.40;42.00;;;;;;2340932;53;21615;-70
2022/07/24 12:15:49;;;;;;;3.35;2.12;;;32.50;42.30;;;;;;2550701;53;21024;-72
2022/07/24 12:18:17;;;;;;;3.55;2.30;;;32.50;42.10;;;;;;2342066;54;21461;-74
2022/07/24 12:20:45;;;;;;;3.87;2.50;;;32.50;41.70;;;;;;2433666;53;20941;-72
2022/07/24 12:23:14;;;;;;;3.05;1.87;;;32.60;41.50;;;;;;2342424;54;20968;-73
2022/07/24 12:25:40;;;;;;;4.72;2.50;;;32.60;42.00;;;;;;2466721;53;20987;-72
2022/07/24 12:28:15;;;;;;;4.80;2.60;;;32.60;41.30;;;;;;2315647;53;20995;-72
2022/07/24 12:30:43;;;;;;;3.22;2.22;;;32.70;40.70;;;;;;2425408;53;20943;-73
2022/07/24 12:33:27;;;;;;;3.42;2.10;;;32.70;41.00;;;;;;2314893;53;20968;-72
2022/07/24 12:36:17;;;;;;;3.65;2.45;;;32.80;40.90;;;;;;2559776;53;20967;-74
2022/07/24 12:38:54;;;;;;;4.10;2.28;;;32.80;40.50;;;;;;2315689;55;20951;-72
2022/07/24 12:41:22;;;;;;;3.80;2.55;;;32.80;40.40;;;;;;2348651;54;21700;-74
2022/07/24 12:43:50;;;;;;;3.75;2.50;;;32.90;40.70;;;;;;2314835;55;20991;-74
2022/07/24 12:46:18;;;;;;;3.45;2.45;;;32.90;40.50;;;;;;2309721;55;21711;-73
2022/07/24 12:49:15;;;;;;;3.80;2.58;;;32.90;40.60;;;;;;2336098;55;21084;-74
2022/07/24 12:51:59;;;;;;;3.35;2.30;;;33.00;40.10;;;;;;2565696;53;21037;-74
2022/07/24 12:54:33;;;;;;;3.40;2.15;;;33.00;39.70;;;;;;2331341;54;20940;-74
2022/07/24 12:57:02;;;;;;;3.65;2.10;;;33.10;40.10;;;;;;2342193;54;21422;-74
2022/07/24 12:59:49;;;;;;;3.30;2.10;;;33.10;40.10;;;;;;2342204;54;21000;-74
2022/07/24 13:02:20;;;;;;;3.75;2.37;;;33.20;39.20;;;;;;2342166;54;21027;-75
2022/07/24 13:04:54;;;;;;;3.23;2.10;;;33.20;39.20;;;;;;2342268;54;20969;-78
2022/07/24 13:07:22;;;;;;;3.17;2.33;;;33.20;38.90;;;;;;2468596;53;20921;-77